createdAt,value
2022-09-06T00:01:01.213Z,82.98
2022-09-06T00:03:28.265Z,81.95
2022-09-06T00:05:55.436Z,81.81
2022-09-06T00:08:21.954Z,81.37
2022-09-06T00:10:48.440Z,81.22
2022-09-06T00:13:15.013Z,82.17
2022-09-06T00:15:41.654Z,82.88
2022-09-06T00:18:08.781Z,82.20
2022-09-06T00:20:41.350Z,82.54
2022-09-06T00:23:08.539Z,83.13
2022-09-06T00:25:35.495Z,82.92
2022-09-06T00:28:06.036Z,82.68
2022-09-06T00:30:33.479Z,82.37
2022-09-06T00:33:00.046Z,81.58
2022-09-06T00:35:29.331Z,81.62
2022-09-06T00:38:04.431Z,81.87
2022-09-06T00:40:35.226Z,81.73
2022-09-06T00:43:01.810Z,83.08
2022-09-06T00:45:28.739Z,83.15
2022-09-06T00:47:55.665Z,82.60
2022-09-06T00:50:22.473Z,83.32
2022-09-06T00:52:50.278Z,82.65
2022-09-06T00:55:20.042Z,81.96
2022-09-06T00:57:51.338Z,81.90
2022-09-06T01:00:19.619Z,81.39
2022-09-06T01:02:46.394Z,81.36
2022-09-06T01:05:13.774Z,81.35
2022-09-06T01:08:13.019Z,81.12
2022-09-06T01:11:04.042Z,82.01
2022-09-06T01:13:51.554Z,81.66
2022-09-06T01:16:28.193Z,81.85
2022-09-06T01:19:32.283Z,82.03
2022-09-06T01:22:01.802Z,82.12
2022-09-06T01:24:48.531Z,82.41
2022-09-06T01:27:52.632Z,82.17
2022-09-06T01:30:19.944Z,82.43
2022-09-06T01:33:17.275Z,82.08
2022-09-06T01:35:57.673Z,82.97
2022-09-06T01:38:24.289Z,81.81
2022-09-06T01:40:50.757Z,81.79
2022-09-06T01:43:24.193Z,82.02
2022-09-06T01:45:51.049Z,81.86
2022-09-06T01:48:28.789Z,82.02
2022-09-06T01:51:15.589Z,82.88
2022-09-06T01:53:57.339Z,83.58
2022-09-06T01:56:35.941Z,82.71
2022-09-06T01:59:27.187Z,82.91
2022-09-06T02:02:07.746Z,82.52
2022-09-06T02:04:46.703Z,82.78
2022-09-06T02:07:26.004Z,83.20
2022-09-06T02:10:16.078Z,83.54
2022-09-06T02:12:45.847Z,83.92
2022-09-06T02:15:19.128Z,82.30
2022-09-06T02:17:53.653Z,82.82
2022-09-06T02:20:25.238Z,83.92
2022-09-06T02:22:53.603Z,84.09
2022-09-06T02:25:32.433Z,83.96
2022-09-06T02:27:59.004Z,83.50
2022-09-06T02:30:25.696Z,83.08
2022-09-06T02:33:05.751Z,82.97
2022-09-06T02:35:32.577Z,82.81
2022-09-06T02:37:59.259Z,82.74
2022-09-06T02:40:25.935Z,83.02
2022-09-06T02:42:54.208Z,82.18
2022-09-06T02:45:20.678Z,82.41
2022-09-06T02:47:47.368Z,81.86
2022-09-06T02:50:15.333Z,81.68
2022-09-06T02:52:41.910Z,82.08
2022-09-06T02:55:11.672Z,81.46
2022-09-06T02:57:38.270Z,81.78
2022-09-06T03:00:05.346Z,81.20
2022-09-06T03:02:31.890Z,80.20
2022-09-06T03:04:59.412Z,80.00
2022-09-06T03:07:25.943Z,80.91
2022-09-06T03:09:52.491Z,81.29
2022-09-06T03:12:18.991Z,82.07
2022-09-06T03:14:45.508Z,81.90
2022-09-06T03:17:12.020Z,81.98
2022-09-06T03:19:38.531Z,81.16
2022-09-06T03:22:05.056Z,79.63
2022-09-06T03:24:33.789Z,79.41
2022-09-06T03:27:00.513Z,79.96
2022-09-06T03:29:27.015Z,81.19
2022-09-06T03:31:53.651Z,80.94
2022-09-06T03:34:21.571Z,82.16
2022-09-06T03:36:48.117Z,81.71
2022-09-06T03:39:16.740Z,80.54
2022-09-06T03:41:44.473Z,80.61
2022-09-06T03:44:11.301Z,80.92
2022-09-06T03:46:38.421Z,81.24
2022-09-06T03:49:05.012Z,81.55
2022-09-06T03:51:31.703Z,81.99
2022-09-06T03:53:58.776Z,82.00
2022-09-06T03:56:25.310Z,82.35
2022-09-06T03:58:51.971Z,82.64
2022-09-06T04:01:18.602Z,82.63
2022-09-06T04:03:45.403Z,82.37
2022-09-06T04:06:11.999Z,82.80
2022-09-06T04:08:39.363Z,82.78
2022-09-06T04:11:06.597Z,82.18
2022-09-06T04:13:33.746Z,81.12
2022-09-06T04:16:00.771Z,81.52
2022-09-06T04:18:27.379Z,80.90
2022-09-06T04:20:56.247Z,80.63
2022-09-06T04:23:25.372Z,80.02
2022-09-06T04:25:53.867Z,80.08
2022-09-06T04:28:22.375Z,80.58
2022-09-06T04:30:53.287Z,80.82
2022-09-06T04:33:20.597Z,80.47
2022-09-06T04:35:54.248Z,79.88
2022-09-06T04:38:20.817Z,79.55
2022-09-06T04:40:47.358Z,79.42
2022-09-06T04:43:14.347Z,79.10
2022-09-06T04:45:41.692Z,79.14
2022-09-06T04:48:08.586Z,79.16
2022-09-06T04:50:35.357Z,79.23
2022-09-06T04:53:02.078Z,78.83
2022-09-06T04:55:31.475Z,79.23
2022-09-06T04:58:01.376Z,79.23
2022-09-06T05:00:28.566Z,80.31
2022-09-06T05:02:55.096Z,80.55
2022-09-06T05:05:22.591Z,80.80
2022-09-06T05:07:52.971Z,80.31
2022-09-06T05:10:19.999Z,79.19
2022-09-06T05:12:55.189Z,79.16
2022-09-06T05:15:23.851Z,79.02
2022-09-06T05:17:50.505Z,75.74
2022-09-06T05:20:17.927Z,74.85
2022-09-06T05:22:52.197Z,74.70
2022-09-06T05:25:18.806Z,76.70
2022-09-06T05:27:45.404Z,78.55
2022-09-06T05:30:12.657Z,78.74
2022-09-06T05:32:39.166Z,76.03
2022-09-06T05:35:05.892Z,74.11
2022-09-06T05:37:33.465Z,72.56
2022-09-06T05:40:01.875Z,71.66
2022-09-06T05:42:28.482Z,70.78
2022-09-06T05:44:55.005Z,71.41
2022-09-06T05:47:21.597Z,71.28
2022-09-06T05:49:48.160Z,72.01
2022-09-06T05:52:14.752Z,71.89
2022-09-06T05:54:41.667Z,72.63
2022-09-06T05:57:10.251Z,74.33
2022-09-06T05:59:37.298Z,74.13
2022-09-06T06:02:07.183Z,74.94
2022-09-06T06:04:35.319Z,74.99
2022-09-06T06:07:01.912Z,74.44
2022-09-06T06:09:28.469Z,74.02
2022-09-06T06:11:55.012Z,72.88
2022-09-06T06:14:21.530Z,72.47
2022-09-06T06:16:51.153Z,71.45
2022-09-06T06:19:17.748Z,71.96
2022-09-06T06:21:44.260Z,71.50
2022-09-06T06:24:10.978Z,69.84
2022-09-06T06:26:37.893Z,68.92
2022-09-06T06:29:08.144Z,69.53
2022-09-06T06:31:35.685Z,69.10
2022-09-06T06:34:04.083Z,67.48
2022-09-06T06:36:33.671Z,67.22
2022-09-06T06:39:01.207Z,67.26
2022-09-06T06:41:30.363Z,65.67
2022-09-06T06:43:59.193Z,66.89
2022-09-06T06:46:28.298Z,66.82
2022-09-06T06:48:55.481Z,64.74
2022-09-06T06:51:27.353Z,64.03
2022-09-06T06:53:54.336Z,64.40
2022-09-06T06:56:28.098Z,63.45
2022-09-06T06:58:58.020Z,61.25
2022-09-06T07:01:30.778Z,61.73
2022-09-06T07:03:58.176Z,63.70
2022-09-06T07:09:12.904Z,61.93
2022-09-06T07:11:41.874Z,59.20
2022-09-06T07:14:09.872Z,58.71
2022-09-06T07:16:36.546Z,61.48
2022-09-06T07:19:03.421Z,59.45
2022-09-06T07:21:37.208Z,58.72
2022-09-06T07:24:08.611Z,59.25
2022-09-06T07:26:36.645Z,57.24
2022-09-06T07:29:04.930Z,58.80
2022-09-06T07:34:19.297Z,58.05
2022-09-06T07:36:45.978Z,57.47
2022-09-06T07:39:19.931Z,56.14
2022-09-06T07:41:46.590Z,56.54
2022-09-06T07:44:13.155Z,53.28
2022-09-06T07:46:39.829Z,54.14
2022-09-06T07:49:07.444Z,54.08
2022-09-06T07:51:35.646Z,50.91
2022-09-06T07:54:29.294Z,51.99
2022-09-06T07:56:51.362Z,53.29
2022-09-06T07:59:18.036Z,52.53
2022-09-06T08:01:47.543Z,52.23
2022-09-06T08:04:16.158Z,54.10
2022-09-06T08:09:35.162Z,51.36
2022-09-06T08:12:06.724Z,51.60
2022-09-06T08:14:33.842Z,51.75
2022-09-06T08:17:00.897Z,51.89
2022-09-06T08:19:28.145Z,51.43
2022-09-06T08:21:55.575Z,50.83
2022-09-06T08:24:22.116Z,50.22
2022-09-06T08:26:48.600Z,51.44
2022-09-06T08:29:15.490Z,52.19
2022-09-06T08:31:44.779Z,50.98
2022-09-06T08:34:15.200Z,51.64
2022-09-06T08:36:42.294Z,51.16
2022-09-06T08:39:10.134Z,50.27
2022-09-06T08:42:00.340Z,48.46
2022-09-06T08:44:56.362Z,48.04
2022-09-06T08:47:24.145Z,45.39
2022-09-06T08:50:07.250Z,41.96
2022-09-06T08:52:34.055Z,41.80
2022-09-06T08:55:19.115Z,42.11
2022-09-06T08:58:21.712Z,40.99
2022-09-06T09:00:51.750Z,42.81
2022-09-06T09:03:21.824Z,42.87
2022-09-06T09:05:52.535Z,42.32
2022-09-06T09:08:27.804Z,43.43
2022-09-06T09:11:21.432Z,42.12
2022-09-06T09:13:55.846Z,42.30
2022-09-06T09:16:22.791Z,42.12
2022-09-06T09:19:02.003Z,40.58
2022-09-06T09:21:32.137Z,42.24
2022-09-06T09:24:03.756Z,42.55
2022-09-06T09:26:34.663Z,39.84
2022-09-06T09:29:06.996Z,40.33
2022-09-06T09:31:39.410Z,39.11
2022-09-06T09:34:06.600Z,36.87
2022-09-06T09:36:33.516Z,39.56
2022-09-06T09:39:00.297Z,37.81
2022-09-06T09:41:33.988Z,40.38
2022-09-06T09:44:04.869Z,41.78
2022-09-06T09:46:36.230Z,40.98
2022-09-06T09:49:11.015Z,40.22
2022-09-06T09:51:38.970Z,42.53
2022-09-06T09:54:08.038Z,39.23
2022-09-06T09:56:52.878Z,39.14
2022-09-06T09:59:26.375Z,39.22
2022-09-06T10:02:00.119Z,39.76
2022-09-06T10:04:47.479Z,38.67
2022-09-06T10:07:23.531Z,39.48
2022-09-06T10:10:01.519Z,37.67
2022-09-06T10:12:38.915Z,35.01
2022-09-06T10:15:07.788Z,36.31
2022-09-06T10:17:39.578Z,36.17
2022-09-06T10:20:08.643Z,37.81
2022-09-06T10:22:41.525Z,35.06
2022-09-06T10:25:29.999Z,36.96
2022-09-06T10:28:20.064Z,37.73
2022-09-06T10:31:09.414Z,36.53
2022-09-06T10:33:51.243Z,38.17
2022-09-06T10:36:21.123Z,36.67
2022-09-06T10:39:03.897Z,38.76
2022-09-06T10:42:15.409Z,36.03
2022-09-06T10:44:58.569Z,35.97
2022-09-06T10:47:33.240Z,40.01
2022-09-06T10:50:00.929Z,37.09
2022-09-06T10:52:37.012Z,37.45
2022-09-06T10:55:06.374Z,38.76
2022-09-06T11:00:49.225Z,39.36
2022-09-06T11:06:20.675Z,38.53
2022-09-06T11:09:07.040Z,40.21
2022-09-06T11:11:41.674Z,40.20
2022-09-06T11:14:12.976Z,39.78
2022-09-06T11:16:50.539Z,41.24
2022-09-06T11:19:23.072Z,41.47
2022-09-06T11:21:57.363Z,38.83
2022-09-06T11:24:56.727Z,37.03
2022-09-06T11:27:35.862Z,37.04
2022-09-06T11:30:03.876Z,35.03
2022-09-06T11:32:52.535Z,35.87
2022-09-06T11:35:25.850Z,34.34
2022-09-06T11:38:04.738Z,35.16
2022-09-06T11:40:41.509Z,34.56
2022-09-06T11:43:11.149Z,34.58
2022-09-06T11:45:48.511Z,33.46
2022-09-06T11:48:24.417Z,34.75
2022-09-06T11:50:53.902Z,32.77
2022-09-06T11:53:25.390Z,32.74
2022-09-06T11:56:12.269Z,33.43
2022-09-06T11:58:41.590Z,33.47
2022-09-06T12:01:14.877Z,32.66
2022-09-06T12:04:09.704Z,31.61
2022-09-06T12:06:42.826Z,33.65
2022-09-06T12:09:36.388Z,33.00
2022-09-06T12:12:03.738Z,31.98
2022-09-06T12:14:47.282Z,31.58
2022-09-06T12:17:14.857Z,31.48
2022-09-06T12:20:08.064Z,32.22
2022-09-06T12:22:47.815Z,32.60
2022-09-06T12:25:44.595Z,31.77
2022-09-06T12:28:24.897Z,32.79
2022-09-06T12:30:51.512Z,31.09
2022-09-06T12:33:32.794Z,32.24
2022-09-06T12:36:30.201Z,30.16
2022-09-06T12:39:33.809Z,32.92
2022-09-06T12:42:11.792Z,31.13
2022-09-06T12:44:45.053Z,30.28
2022-09-06T12:47:11.513Z,31.06
2022-09-06T12:49:38.023Z,32.08
2022-09-06T12:52:16.120Z,31.78
2022-09-06T12:54:49.663Z,31.41
2022-09-06T12:57:24.704Z,33.05
2022-09-06T12:59:56.216Z,31.72
2022-09-06T13:02:43.499Z,32.02
2022-09-06T13:05:12.332Z,31.22
2022-09-06T13:07:56.530Z,32.69
2022-09-06T13:10:26.247Z,32.98
2022-09-06T13:12:53.777Z,33.03
2022-09-06T13:15:22.551Z,32.31
2022-09-06T13:17:51.509Z,33.85
2022-09-06T13:20:30.564Z,33.00
2022-09-06T13:23:11.116Z,33.30
2022-09-06T13:25:56.921Z,34.04
2022-09-06T13:28:33.977Z,33.76
2022-09-06T13:31:20.937Z,31.87
2022-09-06T13:33:59.862Z,32.84
2022-09-06T13:36:31.016Z,33.43
2022-09-06T13:38:58.011Z,33.80
2022-09-06T13:41:24.522Z,35.20
2022-09-06T13:44:20.160Z,35.56
2022-09-06T13:46:56.933Z,35.72
2022-09-06T13:49:23.895Z,32.92
2022-09-06T13:51:52.103Z,33.97
2022-09-06T13:54:20.475Z,34.61
2022-09-06T13:56:48.476Z,36.06
2022-09-06T13:59:17.157Z,35.46
2022-09-06T14:01:46.789Z,35.83
2022-09-06T14:04:21.376Z,34.59
2022-09-06T14:06:49.002Z,35.95
2022-09-06T14:09:20.130Z,36.10
2022-09-06T14:11:49.791Z,36.46
2022-09-06T14:14:18.005Z,36.70
2022-09-06T14:16:47.695Z,36.56
2022-09-06T14:19:15.116Z,38.61
2022-09-06T14:21:41.814Z,37.63
2022-09-06T14:24:08.348Z,38.75
2022-09-06T14:26:38.837Z,39.48
2022-09-06T14:29:05.628Z,39.46
2022-09-06T14:31:34.936Z,38.14
2022-09-06T14:34:02.748Z,37.45
2022-09-06T14:36:31.128Z,37.56
2022-09-06T14:38:59.685Z,39.91
2022-09-06T14:41:26.945Z,39.76
2022-09-06T14:43:55.267Z,38.70
2022-09-06T14:46:23.165Z,40.34
2022-09-06T14:48:56.547Z,40.48
2022-09-06T14:51:23.946Z,40.33
2022-09-06T14:53:53.434Z,41.01
2022-09-06T14:56:20.696Z,41.13
2022-09-06T14:58:47.472Z,39.59
2022-09-06T15:01:16.850Z,40.70
2022-09-06T15:04:07.267Z,41.62
2022-09-06T15:06:34.821Z,41.14
2022-09-06T15:09:01.677Z,40.66
2022-09-06T15:11:36.554Z,45.07
2022-09-06T15:14:06.254Z,44.43
2022-09-06T15:16:37.670Z,43.18
2022-09-06T15:19:12.595Z,43.51
2022-09-06T15:21:39.159Z,44.37
2022-09-06T15:24:11.533Z,45.67
2022-09-06T15:26:39.435Z,45.40
2022-09-06T15:29:25.591Z,46.95
2022-09-06T15:31:52.975Z,46.95
2022-09-06T15:34:29.157Z,46.60
2022-09-06T15:36:59.560Z,46.52
2022-09-06T15:39:26.071Z,46.97
2022-09-06T15:41:52.668Z,47.24
2022-09-06T15:44:20.820Z,48.64
2022-09-06T15:46:57.601Z,48.52
2022-09-06T15:49:30.913Z,49.98
2022-09-06T15:52:01.832Z,49.67
2022-09-06T15:54:47.487Z,50.25
2022-09-06T15:57:16.485Z,50.67
2022-09-06T15:59:43.763Z,49.39
2022-09-06T16:02:17.684Z,51.19
2022-09-06T16:04:45.687Z,49.84
2022-09-06T16:07:12.604Z,49.00
2022-09-06T16:09:39.293Z,49.96
2022-09-06T16:12:06.216Z,49.54
2022-09-06T16:14:32.783Z,50.71
2022-09-06T16:16:59.354Z,51.00
2022-09-06T16:19:26.319Z,50.09
2022-09-06T16:21:53.187Z,49.84
2022-09-06T16:24:19.881Z,52.53
2022-09-06T16:26:46.782Z,51.69
2022-09-06T16:29:15.210Z,51.93
2022-09-06T16:31:42.163Z,53.87
2022-09-06T16:34:09.772Z,52.81
2022-09-06T16:36:36.728Z,53.59
2022-09-06T16:39:03.859Z,52.74
2022-09-06T16:41:39.444Z,53.79
2022-09-06T16:44:10.406Z,54.31
2022-09-06T16:46:36.953Z,54.64
2022-09-06T16:49:04.515Z,55.42
2022-09-06T16:51:31.432Z,56.19
2022-09-06T16:53:58.723Z,56.02
2022-09-06T16:56:27.393Z,54.92
2022-09-06T16:58:56.478Z,56.27
2022-09-06T17:01:27.864Z,55.59
2022-09-06T17:03:54.664Z,55.77
2022-09-06T17:06:21.873Z,56.90
2022-09-06T17:08:52.404Z,56.31
2022-09-06T17:11:22.300Z,56.18
2022-09-06T17:13:50.642Z,55.83
2022-09-06T17:16:39.384Z,56.49
2022-09-06T17:19:06.953Z,57.72
2022-09-06T17:21:34.134Z,58.30
2022-09-06T17:24:03.181Z,57.48
2022-09-06T17:26:30.859Z,57.91
2022-09-06T17:28:57.550Z,57.52
2022-09-06T17:31:26.419Z,58.15
2022-09-06T17:33:53.481Z,57.09
2022-09-06T17:36:27.652Z,57.76
2022-09-06T17:39:07.275Z,58.42
2022-09-06T17:41:38.863Z,59.16
2022-09-06T17:44:12.766Z,62.71
2022-09-06T17:46:51.935Z,58.61
2022-09-06T17:49:24.152Z,59.09
2022-09-06T17:51:52.347Z,58.49
2022-09-06T17:54:19.292Z,59.39
2022-09-06T17:56:45.827Z,59.87
2022-09-06T17:59:14.161Z,59.87
2022-09-06T18:01:43.849Z,58.82
2022-09-06T18:04:14.231Z,59.79
2022-09-06T18:06:42.732Z,60.55
2022-09-06T18:09:11.579Z,60.73
2022-09-06T18:11:39.822Z,61.66
2022-09-06T18:14:13.191Z,61.95
2022-09-06T18:19:46.344Z,63.27
2022-09-06T18:22:19.959Z,63.49
2022-09-06T18:24:46.631Z,63.54
2022-09-06T18:27:13.139Z,63.78
2022-09-06T18:29:39.637Z,63.89
2022-09-06T18:32:07.535Z,63.68
2022-09-06T18:34:34.896Z,63.90
2022-09-06T18:37:02.676Z,63.37
2022-09-06T18:39:29.463Z,63.86
2022-09-06T18:42:02.171Z,62.92
2022-09-06T18:44:33.409Z,64.26
2022-09-06T18:47:06.059Z,64.37
2022-09-06T18:49:34.091Z,63.87
2022-09-06T18:52:04.542Z,64.25
2022-09-06T18:54:34.082Z,64.23
2022-09-06T18:57:03.956Z,64.40
2022-09-06T18:59:30.527Z,64.74
2022-09-06T19:01:57.506Z,64.77
2022-09-06T19:04:24.221Z,65.09
2022-09-06T19:06:53.668Z,65.65
2022-09-06T19:09:20.627Z,67.77
2022-09-06T19:11:51.258Z,69.58
2022-09-06T19:14:17.965Z,70.65
2022-09-06T19:16:52.535Z,71.44
2022-09-06T19:19:21.911Z,70.39
2022-09-06T19:21:48.497Z,70.66
2022-09-06T19:24:17.681Z,70.58
2022-09-06T19:26:44.914Z,70.14
2022-09-06T19:29:15.516Z,69.51
2022-09-06T19:31:42.711Z,69.17
2022-09-06T19:34:09.509Z,68.45
2022-09-06T19:36:36.306Z,69.26
2022-09-06T19:39:06.535Z,69.03
2022-09-06T19:41:42.201Z,69.29
2022-09-06T19:44:10.570Z,69.09
2022-09-06T19:46:37.700Z,68.79
2022-09-06T19:49:08.524Z,69.22
2022-09-06T19:51:36.476Z,68.54
2022-09-06T19:54:03.751Z,69.01
2022-09-06T19:56:34.212Z,68.68
2022-09-06T19:59:12.127Z,68.93
2022-09-06T20:01:40.526Z,69.07
2022-09-06T20:04:08.547Z,68.53
2022-09-06T20:06:35.910Z,68.59
2022-09-06T20:09:04.976Z,68.67
2022-09-06T20:11:33.144Z,68.84
2022-09-06T20:14:03.640Z,68.78
2022-09-06T20:16:36.035Z,69.59
2022-09-06T20:19:08.476Z,70.11
2022-09-06T20:21:35.015Z,70.17
2022-09-06T20:24:03.773Z,70.28
2022-09-06T20:26:31.942Z,69.87
2022-09-06T20:29:07.720Z,70.02
2022-09-06T20:31:37.288Z,70.34
2022-09-06T20:34:05.198Z,71.42
2022-09-06T20:36:32.067Z,72.19
2022-09-06T20:38:59.215Z,72.36
2022-09-06T20:41:27.171Z,72.34
2022-09-06T20:43:58.265Z,72.25
2022-09-06T20:46:28.971Z,72.89
2022-09-06T20:49:01.913Z,73.10
2022-09-06T20:51:28.495Z,73.26
2022-09-06T20:53:57.142Z,73.46
2022-09-06T20:56:28.964Z,73.38
2022-09-06T20:59:00.766Z,73.37
2022-09-06T21:01:29.716Z,75.42
2022-09-06T21:03:59.354Z,76.59
2022-09-06T21:06:27.308Z,76.59
2022-09-06T21:08:54.301Z,76.84
2022-09-06T21:11:20.776Z,76.98
2022-09-06T21:13:58.424Z,75.75
2022-09-06T21:16:27.760Z,76.21
2022-09-06T21:18:58.909Z,75.71
2022-09-06T21:21:26.463Z,75.63
2022-09-06T21:23:53.332Z,75.53
2022-09-06T21:26:19.809Z,77.05
2022-09-06T21:28:47.381Z,77.22
2022-09-06T21:31:22.234Z,78.41
2022-09-06T21:33:52.721Z,77.47
2022-09-06T21:36:24.620Z,77.78
2022-09-06T21:38:55.642Z,77.60
2022-09-06T21:41:23.155Z,77.49
2022-09-06T21:43:53.645Z,77.47
2022-09-06T21:46:21.627Z,77.47
2022-09-06T21:48:49.876Z,78.39
2022-09-06T21:51:18.973Z,77.96
2022-09-06T21:53:47.955Z,79.38
2022-09-06T21:56:15.623Z,80.36
2022-09-06T21:58:44.178Z,81.56
2022-09-06T22:01:11.047Z,81.17
2022-09-06T22:03:40.248Z,81.28
2022-09-06T22:06:10.876Z,81.09
2022-09-06T22:08:37.753Z,79.85
2022-09-06T22:11:12.391Z,79.47
2022-09-06T22:13:39.828Z,80.86
2022-09-06T22:16:07.991Z,81.32
2022-09-06T22:18:34.894Z,80.91
2022-09-06T22:21:10.550Z,81.38
2022-09-06T22:23:38.943Z,81.35
2022-09-06T22:26:07.523Z,80.96
2022-09-06T22:28:34.287Z,80.57
2022-09-06T22:31:00.936Z,80.72
2022-09-06T22:33:27.842Z,80.93
2022-09-06T22:35:55.562Z,80.84
2022-09-06T22:38:22.252Z,80.60
2022-09-06T22:40:49.200Z,80.31
2022-09-06T22:43:16.104Z,80.03
2022-09-06T22:45:47.513Z,81.67
2022-09-06T22:48:17.955Z,82.26
2022-09-06T22:50:46.018Z,82.60
2022-09-06T22:53:12.950Z,82.34
2022-09-06T22:55:39.616Z,81.57
2022-09-06T22:58:06.465Z,80.67
2022-09-06T23:00:36.065Z,80.61
2022-09-06T23:03:02.850Z,80.83
2022-09-06T23:05:31.061Z,80.73
2022-09-06T23:07:57.942Z,80.33
2022-09-06T23:10:24.519Z,81.35
2022-09-06T23:12:54.520Z,82.06
2022-09-06T23:15:21.302Z,82.67
2022-09-06T23:17:48.186Z,82.39
2022-09-06T23:20:14.816Z,82.41
2022-09-06T23:22:41.803Z,82.21
2022-09-06T23:25:08.899Z,81.44
2022-09-06T23:27:35.409Z,80.79
2022-09-06T23:30:04.453Z,81.12
2022-09-06T23:32:34.731Z,81.65
2022-09-06T23:35:01.293Z,82.40
2022-09-06T23:37:27.797Z,82.57
2022-09-06T23:39:54.433Z,82.15
2022-09-06T23:42:22.923Z,81.88
2022-09-06T23:44:54.394Z,81.85
2022-09-06T23:47:20.982Z,81.92
2022-09-06T23:49:47.496Z,82.28
2022-09-06T23:52:13.999Z,82.01
2022-09-06T23:54:40.600Z,82.84
2022-09-06T23:57:07.406Z,83.22
2022-09-06T23:59:35.904Z,83.39
